FLE22 CYYC-CYVR
Flight info
| Callsign | FLE22 |
|---|---|
| Flight time | 1h 13m |
| Altitude | 38000 |
| Route | BOTAG Q894 BOOTH CANUC6 |
| Aircraft | B738/M-SDE2E3FGHIRWXY/LB1 |
Departure
| Time | 2026-05-07 00:57 |
|---|---|
| Airport | Calgary International Airport (CYYC) |
Arrival
| Time | 2026-05-07 02:10 |
|---|---|
| Airport | Vancouver International Airport (CYVR) |
| Time | Latitude | Longitude | Altitude | Speed | Heading |
|---|---|---|---|---|---|
| 2026-05-07 00:34 | 51.13229 | -114.01313 | 3542 ft | 0 kts | 46° |
| 2026-05-07 00:45 | 51.13223 | -114.01323 | 3542 ft | 3 kts | 42° |
| 2026-05-07 00:45 | 51.13207 | -114.01343 | 3542 ft | 3 kts | 30° |
| 2026-05-07 00:46 | 51.13189 | -114.01359 | 3541 ft | 3 kts | 36° |
| 2026-05-07 00:46 | 51.13174 | -114.01380 | 3541 ft | 3 kts | 39° |
| 2026-05-07 00:46 | 51.13157 | -114.01398 | 3541 ft | 3 kts | 22° |
| 2026-05-07 00:46 | 51.13140 | -114.01405 | 3541 ft | 3 kts | 341° |
| 2026-05-07 00:47 | 51.13130 | -114.01397 | 3541 ft | 0 kts | 306° |
| 2026-05-07 00:49 | 51.13131 | -114.01399 | 3541 ft | 0 kts | 305° |
| 2026-05-07 00:50 | 51.13134 | -114.01407 | 3541 ft | 3 kts | 305° |
| 2026-05-07 00:50 | 51.13153 | -114.01465 | 3540 ft | 7 kts | 284° |
| 2026-05-07 00:50 | 51.13155 | -114.01539 | 3540 ft | 7 kts | 270° |
| 2026-05-07 00:50 | 51.13155 | -114.01612 | 3539 ft | 7 kts | 270° |
| 2026-05-07 00:51 | 51.13144 | -114.01663 | 3539 ft | 7 kts | 238° |
| 2026-05-07 00:51 | 51.13134 | -114.01688 | 3539 ft | 7 kts | 236° |
| 2026-05-07 00:51 | 51.13107 | -114.01747 | 3539 ft | 7 kts | 237° |
| 2026-05-07 00:52 | 51.13098 | -114.01799 | 3539 ft | 10 kts | 263° |
| 2026-05-07 00:52 | 51.13097 | -114.01901 | 3538 ft | 16 kts | 269° |
| 2026-05-07 00:52 | 51.13082 | -114.02122 | 3540 ft | 22 kts | 243° |
| 2026-05-07 00:52 | 51.13066 | -114.02353 | 3538 ft | 20 kts | 258° |
| 2026-05-07 00:53 | 51.12950 | -114.02416 | 3539 ft | 19 kts | 178° |
| 2026-05-07 00:53 | 51.12819 | -114.02417 | 3540 ft | 19 kts | 179° |
| 2026-05-07 00:53 | 51.12693 | -114.02418 | 3541 ft | 18 kts | 180° |
| 2026-05-07 00:53 | 51.12605 | -114.02505 | 3542 ft | 17 kts | 269° |
| 2026-05-07 00:54 | 51.12604 | -114.02692 | 3542 ft | 17 kts | 273° |
| 2026-05-07 00:54 | 51.12629 | -114.02868 | 3541 ft | 16 kts | 290° |
| 2026-05-07 00:54 | 51.12681 | -114.03020 | 3541 ft | 15 kts | 298° |
| 2026-05-07 00:54 | 51.12735 | -114.03163 | 3540 ft | 15 kts | 301° |
| 2026-05-07 00:55 | 51.12783 | -114.03301 | 3539 ft | 14 kts | 299° |
| 2026-05-07 00:55 | 51.12831 | -114.03434 | 3538 ft | 14 kts | 299° |
| 2026-05-07 00:55 | 51.12859 | -114.03570 | 3538 ft | 13 kts | 268° |
| 2026-05-07 00:55 | 51.12815 | -114.03687 | 3537 ft | 13 kts | 215° |
| 2026-05-07 00:56 | 51.12733 | -114.03709 | 3537 ft | 12 kts | 161° |
| 2026-05-07 00:56 | 51.12668 | -114.03624 | 3537 ft | 12 kts | 124° |
| 2026-05-07 00:56 | 51.12655 | -114.03589 | 3537 ft | 0 kts | 117° |
| 2026-05-07 00:56 | 51.12567 | -114.03344 | 3541 ft | 64 kts | 120° |
| 2026-05-07 00:57 | 51.12216 | -114.02381 | 3547 ft | 134 kts | 120° |
| 2026-05-07 00:57 | 51.11652 | -114.00828 | 3654 ft | 185 kts | 119° |
| 2026-05-07 00:57 | 51.10971 | -113.98980 | 4357 ft | 197 kts | 119° |
| 2026-05-07 00:57 | 51.10296 | -113.97110 | 5333 ft | 192 kts | 117° |
| 2026-05-07 00:58 | 51.09578 | -113.95358 | 6263 ft | 196 kts | 139° |
| 2026-05-07 00:58 | 51.08213 | -113.94382 | 6052 ft | 248 kts | 175° |
| 2026-05-07 00:58 | 51.06553 | -113.95257 | 6497 ft | 258 kts | 224° |
| 2026-05-07 00:58 | 51.05492 | -113.97528 | 7416 ft | 258 kts | 246° |
| 2026-05-07 00:59 | 51.05222 | -114.03109 | 9354 ft | 256 kts | 275° |
| 2026-05-07 00:59 | 51.05356 | -114.05926 | 10313 ft | 254 kts | 276° |
| 2026-05-07 00:59 | 51.05476 | -114.08594 | 11143 ft | 231 kts | 276° |
| 2026-05-07 01:00 | 51.05581 | -114.11135 | 11876 ft | 231 kts | 276° |
| 2026-05-07 01:00 | 51.05678 | -114.13687 | 12649 ft | 232 kts | 276° |
| 2026-05-07 01:00 | 51.05769 | -114.16245 | 13446 ft | 232 kts | 277° |
| 2026-05-07 01:00 | 51.05854 | -114.18807 | 14157 ft | 232 kts | 277° |
| 2026-05-07 01:01 | 51.05935 | -114.21363 | 14867 ft | 231 kts | 276° |
| 2026-05-07 01:01 | 51.06012 | -114.23917 | 15570 ft | 231 kts | 276° |
| 2026-05-07 01:01 | 51.06087 | -114.26460 | 16276 ft | 230 kts | 276° |
| 2026-05-07 01:01 | 51.06158 | -114.28961 | 16974 ft | 229 kts | 276° |
| 2026-05-07 01:02 | 51.06229 | -114.31487 | 17666 ft | 228 kts | 276° |
| 2026-05-07 01:02 | 51.06299 | -114.34002 | 18315 ft | 228 kts | 276° |
| 2026-05-07 01:02 | 51.06368 | -114.36520 | 18810 ft | 231 kts | 276° |
| 2026-05-07 01:02 | 51.06443 | -114.39192 | 18977 ft | 252 kts | 275° |
| 2026-05-07 01:03 | 51.06522 | -114.42090 | 19134 ft | 273 kts | 275° |
| 2026-05-07 01:03 | 51.06606 | -114.45215 | 19285 ft | 293 kts | 275° |
| 2026-05-07 01:03 | 51.06693 | -114.48561 | 19426 ft | 313 kts | 275° |
| 2026-05-07 01:03 | 51.06785 | -114.52129 | 19558 ft | 332 kts | 275° |
| 2026-05-07 01:04 | 51.06880 | -114.55900 | 19674 ft | 351 kts | 274° |
| 2026-05-07 01:04 | 51.06929 | -114.59868 | 19855 ft | 367 kts | 269° |
| 2026-05-07 01:04 | 51.06764 | -114.62574 | 20123 ft | 374 kts | 263° |
| 2026-05-07 01:04 | 51.06172 | -114.66630 | 20717 ft | 378 kts | 258° |
| 2026-05-07 01:05 | 51.05511 | -114.70679 | 21358 ft | 378 kts | 259° |
| 2026-05-07 01:05 | 51.04863 | -114.74745 | 21929 ft | 381 kts | 259° |
| 2026-05-07 01:05 | 51.04222 | -114.78841 | 22496 ft | 384 kts | 259° |
| 2026-05-07 01:05 | 51.03568 | -114.82980 | 23027 ft | 387 kts | 259° |
| 2026-05-07 01:06 | 51.02900 | -114.87140 | 23485 ft | 391 kts | 258° |
| 2026-05-07 01:06 | 51.02214 | -114.91377 | 23698 ft | 400 kts | 258° |
| 2026-05-07 01:06 | 51.01510 | -114.95710 | 23850 ft | 411 kts | 258° |
| 2026-05-07 01:06 | 51.00786 | -115.00161 | 23981 ft | 420 kts | 258° |
| 2026-05-07 01:07 | 51.00057 | -115.04623 | 24627 ft | 415 kts | 258° |
| 2026-05-07 01:07 | 50.99334 | -115.09033 | 25246 ft | 411 kts | 258° |
| 2026-05-07 01:07 | 50.98614 | -115.13412 | 25879 ft | 407 kts | 258° |
| 2026-05-07 01:07 | 50.98276 | -115.15465 | 26205 ft | 404 kts | 258° |
| 2026-05-07 01:08 | 50.97578 | -115.19706 | 26782 ft | 402 kts | 258° |
| 2026-05-07 01:08 | 50.96865 | -115.24046 | 26903 ft | 412 kts | 258° |
| 2026-05-07 01:08 | 50.96133 | -115.28496 | 26971 ft | 421 kts | 258° |
| 2026-05-07 01:08 | 50.95386 | -115.33022 | 27205 ft | 427 kts | 258° |
| 2026-05-07 01:09 | 50.94633 | -115.37566 | 27614 ft | 426 kts | 258° |
| 2026-05-07 01:09 | 50.93875 | -115.42126 | 27945 ft | 429 kts | 258° |
| 2026-05-07 01:09 | 50.93108 | -115.46711 | 28215 ft | 431 kts | 258° |
| 2026-05-07 01:09 | 50.92340 | -115.51295 | 28738 ft | 428 kts | 258° |
| 2026-05-07 01:10 | 50.91577 | -115.55837 | 29314 ft | 425 kts | 258° |
| 2026-05-07 01:10 | 50.90816 | -115.60355 | 29820 ft | 423 kts | 258° |
| 2026-05-07 01:10 | 50.90059 | -115.64850 | 30226 ft | 422 kts | 258° |
| 2026-05-07 01:10 | 50.89300 | -115.69342 | 30512 ft | 423 kts | 258° |
| 2026-05-07 01:11 | 50.88541 | -115.73839 | 30858 ft | 421 kts | 258° |
| 2026-05-07 01:11 | 50.87786 | -115.78290 | 31432 ft | 414 kts | 258° |
| 2026-05-07 01:11 | 50.87040 | -115.82650 | 32006 ft | 408 kts | 259° |
| 2026-05-07 01:11 | 50.86299 | -115.86979 | 32377 ft | 407 kts | 259° |
| 2026-05-07 01:12 | 50.85557 | -115.91311 | 32677 ft | 408 kts | 259° |
| 2026-05-07 01:12 | 50.84815 | -115.95639 | 33024 ft | 407 kts | 259° |
| 2026-05-07 01:12 | 50.84075 | -115.99936 | 33512 ft | 403 kts | 259° |
| 2026-05-07 01:12 | 50.83338 | -116.04209 | 33892 ft | 402 kts | 259° |
| 2026-05-07 01:13 | 50.82601 | -116.08476 | 34083 ft | 403 kts | 259° |
| 2026-05-07 01:13 | 50.81858 | -116.12770 | 34291 ft | 405 kts | 259° |
| 2026-05-07 01:13 | 50.81113 | -116.17061 | 34587 ft | 404 kts | 259° |
| 2026-05-07 01:13 | 50.80367 | -116.21346 | 34826 ft | 404 kts | 259° |
| 2026-05-07 01:14 | 50.79621 | -116.25612 | 35199 ft | 401 kts | 259° |
| 2026-05-07 01:14 | 50.78879 | -116.29856 | 35408 ft | 402 kts | 260° |
| 2026-05-07 01:14 | 50.78131 | -116.34134 | 35535 ft | 405 kts | 259° |
| 2026-05-07 01:14 | 50.77388 | -116.38368 | 35766 ft | 405 kts | 259° |
| 2026-05-07 01:15 | 50.76623 | -116.42705 | 36046 ft | 404 kts | 259° |
| 2026-05-07 01:15 | 50.75878 | -116.46920 | 36262 ft | 404 kts | 259° |
| 2026-05-07 01:15 | 50.75089 | -116.51197 | 36405 ft | 407 kts | 258° |
| 2026-05-07 01:15 | 50.74264 | -116.55478 | 36655 ft | 407 kts | 258° |
| 2026-05-07 01:16 | 50.73425 | -116.59742 | 36902 ft | 407 kts | 258° |
| 2026-05-07 01:16 | 50.72583 | -116.64013 | 37094 ft | 408 kts | 258° |
| 2026-05-07 01:16 | 50.71741 | -116.68292 | 37314 ft | 407 kts | 258° |
| 2026-05-07 01:16 | 50.70903 | -116.72567 | 37465 ft | 409 kts | 258° |
| 2026-05-07 01:17 | 50.70063 | -116.76866 | 37540 ft | 410 kts | 258° |
| 2026-05-07 01:17 | 50.69182 | -116.81138 | 37651 ft | 408 kts | 258° |
| 2026-05-07 01:17 | 50.68318 | -116.85379 | 37889 ft | 406 kts | 258° |
| 2026-05-07 01:18 | 50.66660 | -116.93955 | 37927 ft | 410 kts | 259° |
| 2026-05-07 01:18 | 50.64988 | -117.02539 | 37907 ft | 408 kts | 258° |
| 2026-05-07 01:19 | 50.63305 | -117.11010 | 37680 ft | 397 kts | 258° |
| 2026-05-07 01:19 | 50.62490 | -117.15060 | 37962 ft | 383 kts | 259° |
| 2026-05-07 01:19 | 50.61691 | -117.19099 | 37896 ft | 390 kts | 259° |
| 2026-05-07 01:20 | 50.60065 | -117.27278 | 37943 ft | 391 kts | 259° |
| 2026-05-07 01:20 | 50.58406 | -117.35542 | 37924 ft | 400 kts | 258° |
| 2026-05-07 01:21 | 50.56705 | -117.43966 | 37888 ft | 406 kts | 258° |
| 2026-05-07 01:21 | 50.54933 | -117.52391 | 37861 ft | 407 kts | 259° |
| 2026-05-07 01:22 | 50.53236 | -117.60850 | 37853 ft | 407 kts | 259° |
| 2026-05-07 01:22 | 50.51539 | -117.69203 | 37855 ft | 396 kts | 259° |
| 2026-05-07 01:23 | 50.49856 | -117.77431 | 37864 ft | 396 kts | 259° |
| 2026-05-07 01:23 | 50.48160 | -117.85675 | 37859 ft | 398 kts | 259° |
| 2026-05-07 01:24 | 50.46448 | -117.93901 | 37811 ft | 396 kts | 259° |
| 2026-05-07 01:24 | 50.44740 | -118.02128 | 37839 ft | 397 kts | 260° |
| 2026-05-07 01:25 | 50.43025 | -118.10359 | 37866 ft | 398 kts | 259° |
| 2026-05-07 01:25 | 50.41291 | -118.18629 | 37846 ft | 400 kts | 259° |
| 2026-05-07 01:26 | 50.39540 | -118.26921 | 37838 ft | 401 kts | 259° |
| 2026-05-07 01:26 | 50.37782 | -118.35220 | 37851 ft | 402 kts | 259° |
| 2026-05-07 01:27 | 50.36031 | -118.43468 | 37844 ft | 402 kts | 259° |
| 2026-05-07 01:27 | 50.34264 | -118.51756 | 37864 ft | 400 kts | 259° |
| 2026-05-07 01:28 | 50.32494 | -118.60021 | 37845 ft | 400 kts | 259° |
| 2026-05-07 01:28 | 50.30723 | -118.68255 | 37847 ft | 399 kts | 259° |
| 2026-05-07 01:29 | 50.28948 | -118.76479 | 37846 ft | 399 kts | 258° |
| 2026-05-07 01:29 | 50.27172 | -118.84666 | 37838 ft | 397 kts | 259° |
| 2026-05-07 01:30 | 50.25390 | -118.92863 | 37847 ft | 402 kts | 259° |
| 2026-05-07 01:30 | 50.23576 | -119.01185 | 37821 ft | 407 kts | 259° |
| 2026-05-07 01:31 | 50.22146 | -119.07706 | 37839 ft | 411 kts | 259° |
| 2026-05-07 01:31 | 50.20277 | -119.16205 | 37848 ft | 416 kts | 258° |
| 2026-05-07 01:32 | 50.18386 | -119.24740 | 37830 ft | 410 kts | 259° |
| 2026-05-07 01:32 | 50.17472 | -119.28826 | 37827 ft | 398 kts | 259° |
| 2026-05-07 01:32 | 50.16569 | -119.32856 | 37842 ft | 391 kts | 259° |
| 2026-05-07 01:33 | 50.14794 | -119.40826 | 37867 ft | 387 kts | 259° |
| 2026-05-07 01:33 | 50.13028 | -119.48754 | 37851 ft | 387 kts | 259° |
| 2026-05-07 01:34 | 50.11258 | -119.56661 | 37856 ft | 387 kts | 259° |
| 2026-05-07 01:34 | 50.09480 | -119.64562 | 37854 ft | 386 kts | 259° |
| 2026-05-07 01:35 | 50.07697 | -119.72447 | 37855 ft | 386 kts | 259° |
| 2026-05-07 01:35 | 50.05905 | -119.80346 | 37883 ft | 388 kts | 259° |
| 2026-05-07 01:36 | 50.04104 | -119.88253 | 37882 ft | 388 kts | 259° |
| 2026-05-07 01:36 | 50.02296 | -119.96160 | 37906 ft | 388 kts | 259° |
| 2026-05-07 01:37 | 50.00491 | -120.04017 | 37898 ft | 388 kts | 259° |
| 2026-05-07 01:37 | 49.98676 | -120.11890 | 37895 ft | 386 kts | 259° |
| 2026-05-07 01:38 | 49.96864 | -120.19729 | 37924 ft | 385 kts | 259° |
| 2026-05-07 01:38 | 49.95049 | -120.27549 | 37922 ft | 385 kts | 259° |
| 2026-05-07 01:39 | 49.93230 | -120.35360 | 37941 ft | 385 kts | 259° |
| 2026-05-07 01:39 | 49.91408 | -120.43158 | 37944 ft | 384 kts | 259° |
| 2026-05-07 01:40 | 49.89581 | -120.50944 | 37959 ft | 384 kts | 259° |
| 2026-05-07 01:40 | 49.87752 | -120.58710 | 37446 ft | 382 kts | 259° |
| 2026-05-07 01:40 | 49.86841 | -120.62561 | 36943 ft | 379 kts | 259° |
| 2026-05-07 01:41 | 49.85935 | -120.66385 | 36426 ft | 377 kts | 259° |
| 2026-05-07 01:41 | 49.85033 | -120.70190 | 35893 ft | 376 kts | 259° |
| 2026-05-07 01:41 | 49.84133 | -120.73982 | 35443 ft | 374 kts | 259° |
| 2026-05-07 01:41 | 49.83249 | -120.77696 | 35003 ft | 372 kts | 259° |
| 2026-05-07 01:42 | 49.82345 | -120.81491 | 34592 ft | 370 kts | 259° |
| 2026-05-07 01:42 | 49.81469 | -120.85164 | 34166 ft | 368 kts | 259° |
| 2026-05-07 01:42 | 49.80582 | -120.88883 | 33620 ft | 368 kts | 258° |
| 2026-05-07 01:42 | 49.79697 | -120.92578 | 33199 ft | 365 kts | 258° |
| 2026-05-07 01:43 | 49.78818 | -120.96243 | 32833 ft | 362 kts | 258° |
| 2026-05-07 01:43 | 49.77943 | -120.99881 | 32508 ft | 358 kts | 258° |
| 2026-05-07 01:43 | 49.77079 | -121.03456 | 32093 ft | 355 kts | 258° |
| 2026-05-07 01:43 | 49.76213 | -121.07045 | 31534 ft | 357 kts | 258° |
| 2026-05-07 01:44 | 49.75347 | -121.10649 | 31078 ft | 357 kts | 258° |
| 2026-05-07 01:44 | 49.74486 | -121.14222 | 30701 ft | 354 kts | 258° |
| 2026-05-07 01:44 | 49.73620 | -121.17812 | 30010 ft | 361 kts | 257° |
| 2026-05-07 01:44 | 49.72735 | -121.21480 | 29203 ft | 367 kts | 257° |
| 2026-05-07 01:45 | 49.71839 | -121.25176 | 28610 ft | 367 kts | 256° |
| 2026-05-07 01:45 | 49.70941 | -121.28856 | 28177 ft | 364 kts | 256° |
| 2026-05-07 01:45 | 49.70050 | -121.32502 | 27670 ft | 362 kts | 256° |
| 2026-05-07 01:45 | 49.69162 | -121.36134 | 27214 ft | 360 kts | 256° |
| 2026-05-07 01:46 | 49.68279 | -121.39739 | 26798 ft | 358 kts | 256° |
| 2026-05-07 01:46 | 49.67400 | -121.43323 | 26365 ft | 356 kts | 256° |
| 2026-05-07 01:46 | 49.66523 | -121.46901 | 25890 ft | 355 kts | 255° |
| 2026-05-07 01:46 | 49.65650 | -121.50447 | 25530 ft | 352 kts | 255° |
| 2026-05-07 01:47 | 49.64783 | -121.53969 | 25081 ft | 351 kts | 255° |
| 2026-05-07 01:47 | 49.63916 | -121.57495 | 24611 ft | 352 kts | 255° |
| 2026-05-07 01:47 | 49.63050 | -121.61002 | 24287 ft | 348 kts | 255° |
| 2026-05-07 01:47 | 49.62190 | -121.64481 | 23933 ft | 345 kts | 254° |
| 2026-05-07 01:48 | 49.61333 | -121.67930 | 23471 ft | 344 kts | 254° |
| 2026-05-07 01:48 | 49.60478 | -121.71379 | 22976 ft | 344 kts | 254° |
| 2026-05-07 01:48 | 49.59625 | -121.74813 | 22574 ft | 342 kts | 254° |
| 2026-05-07 01:48 | 49.58777 | -121.78220 | 22197 ft | 339 kts | 254° |
| 2026-05-07 01:49 | 49.57935 | -121.81601 | 21794 ft | 337 kts | 254° |
| 2026-05-07 01:49 | 49.57096 | -121.84964 | 21392 ft | 335 kts | 253° |
| 2026-05-07 01:49 | 49.56271 | -121.88267 | 20984 ft | 333 kts | 253° |
| 2026-05-07 01:49 | 49.55440 | -121.91592 | 20570 ft | 332 kts | 253° |
| 2026-05-07 01:50 | 49.54611 | -121.94903 | 20190 ft | 330 kts | 253° |
| 2026-05-07 01:50 | 49.53787 | -121.98183 | 19763 ft | 328 kts | 253° |
| 2026-05-07 01:50 | 49.52965 | -122.01454 | 19384 ft | 327 kts | 253° |
| 2026-05-07 01:50 | 49.52132 | -122.04699 | 18996 ft | 325 kts | 251° |
| 2026-05-07 01:51 | 49.51061 | -122.07792 | 18484 ft | 330 kts | 242° |
| 2026-05-07 01:51 | 49.49810 | -122.10745 | 18070 ft | 328 kts | 241° |
| 2026-05-07 01:51 | 49.48580 | -122.13673 | 17727 ft | 325 kts | 242° |
| 2026-05-07 01:51 | 49.47384 | -122.16601 | 17388 ft | 322 kts | 243° |
| 2026-05-07 01:52 | 49.46211 | -122.19525 | 16989 ft | 321 kts | 243° |
| 2026-05-07 01:52 | 49.45050 | -122.22453 | 16608 ft | 320 kts | 243° |
| 2026-05-07 01:52 | 49.43898 | -122.25367 | 16234 ft | 318 kts | 243° |
| 2026-05-07 01:52 | 49.42752 | -122.28258 | 15863 ft | 316 kts | 243° |
| 2026-05-07 01:53 | 49.41610 | -122.31132 | 15505 ft | 315 kts | 243° |
| 2026-05-07 01:53 | 49.40467 | -122.33998 | 15103 ft | 313 kts | 243° |
| 2026-05-07 01:53 | 49.39319 | -122.36825 | 14761 ft | 312 kts | 242° |
| 2026-05-07 01:53 | 49.38130 | -122.39606 | 14404 ft | 311 kts | 240° |
| 2026-05-07 01:54 | 49.36937 | -122.42365 | 14026 ft | 309 kts | 241° |
| 2026-05-07 01:54 | 49.35746 | -122.45105 | 13660 ft | 308 kts | 240° |
| 2026-05-07 01:54 | 49.34581 | -122.47796 | 13286 ft | 306 kts | 241° |
| 2026-05-07 01:54 | 49.33413 | -122.50506 | 12941 ft | 303 kts | 240° |
| 2026-05-07 01:55 | 49.32255 | -122.53194 | 12577 ft | 302 kts | 240° |
| 2026-05-07 01:55 | 49.31102 | -122.55865 | 12268 ft | 299 kts | 240° |
| 2026-05-07 01:55 | 49.29960 | -122.58512 | 11959 ft | 296 kts | 240° |
| 2026-05-07 01:55 | 49.28831 | -122.61128 | 11744 ft | 290 kts | 240° |
| 2026-05-07 01:56 | 49.27736 | -122.63657 | 11621 ft | 281 kts | 240° |
| 2026-05-07 01:56 | 49.26659 | -122.66144 | 11319 ft | 279 kts | 240° |
| 2026-05-07 01:56 | 49.25588 | -122.68618 | 10992 ft | 278 kts | 240° |
| 2026-05-07 01:56 | 49.24676 | -122.71191 | 10662 ft | 273 kts | 257° |
| 2026-05-07 01:57 | 49.24480 | -122.74034 | 10360 ft | 268 kts | 274° |
| 2026-05-07 01:57 | 49.24725 | -122.76845 | 10054 ft | 266 kts | 281° |
| 2026-05-07 01:57 | 49.25080 | -122.79619 | 9660 ft | 267 kts | 281° |
| 2026-05-07 01:57 | 49.25440 | -122.82413 | 9277 ft | 267 kts | 281° |
| 2026-05-07 01:58 | 49.25670 | -122.84253 | 9054 ft | 266 kts | 281° |
| 2026-05-07 01:58 | 49.26005 | -122.87039 | 8732 ft | 265 kts | 281° |
| 2026-05-07 01:58 | 49.26331 | -122.89808 | 8413 ft | 264 kts | 280° |
| 2026-05-07 01:58 | 49.26654 | -122.92574 | 8083 ft | 264 kts | 280° |
| 2026-05-07 01:59 | 49.26976 | -122.95336 | 7774 ft | 263 kts | 280° |
| 2026-05-07 01:59 | 49.27294 | -122.98089 | 7450 ft | 262 kts | 280° |
| 2026-05-07 01:59 | 49.27612 | -123.00838 | 7141 ft | 262 kts | 280° |
| 2026-05-07 01:59 | 49.27928 | -123.03578 | 6840 ft | 261 kts | 280° |
| 2026-05-07 02:00 | 49.28249 | -123.06310 | 6523 ft | 261 kts | 281° |
| 2026-05-07 02:00 | 49.28572 | -123.09034 | 6186 ft | 260 kts | 281° |
| 2026-05-07 02:00 | 49.28895 | -123.11757 | 5867 ft | 260 kts | 281° |
| 2026-05-07 02:00 | 49.29213 | -123.14445 | 5583 ft | 258 kts | 280° |
| 2026-05-07 02:01 | 49.29532 | -123.17150 | 5267 ft | 258 kts | 281° |
| 2026-05-07 02:01 | 49.29851 | -123.19867 | 4877 ft | 261 kts | 280° |
| 2026-05-07 02:01 | 49.30172 | -123.22598 | 4718 ft | 255 kts | 280° |
| 2026-05-07 02:01 | 49.30478 | -123.25221 | 4631 ft | 246 kts | 280° |
| 2026-05-07 02:02 | 49.30761 | -123.27740 | 4522 ft | 233 kts | 279° |
| 2026-05-07 02:02 | 49.31018 | -123.30119 | 4442 ft | 219 kts | 279° |
| 2026-05-07 02:02 | 49.31259 | -123.32356 | 4316 ft | 207 kts | 279° |
| 2026-05-07 02:02 | 49.31492 | -123.34519 | 3968 ft | 205 kts | 279° |
| 2026-05-07 02:03 | 49.31727 | -123.36683 | 3547 ft | 207 kts | 279° |
| 2026-05-07 02:03 | 49.31961 | -123.38861 | 3154 ft | 207 kts | 279° |
| 2026-05-07 02:03 | 49.32197 | -123.41049 | 3115 ft | 210 kts | 279° |
| 2026-05-07 02:03 | 49.32267 | -123.43256 | 3066 ft | 207 kts | 258° |
| 2026-05-07 02:04 | 49.31554 | -123.45113 | 3077 ft | 206 kts | 221° |
| 2026-05-07 02:04 | 49.30246 | -123.45982 | 3076 ft | 209 kts | 189° |
| 2026-05-07 02:04 | 49.28791 | -123.46214 | 3086 ft | 212 kts | 186° |
| 2026-05-07 02:04 | 49.27319 | -123.46394 | 3093 ft | 213 kts | 185° |
| 2026-05-07 02:05 | 49.25836 | -123.46570 | 3021 ft | 215 kts | 186° |
| 2026-05-07 02:05 | 49.24325 | -123.46743 | 2758 ft | 217 kts | 182° |
| 2026-05-07 02:05 | 49.22893 | -123.46229 | 2464 ft | 212 kts | 148° |
| 2026-05-07 02:05 | 49.21938 | -123.44610 | 2216 ft | 204 kts | 118° |
| 2026-05-07 02:06 | 49.21461 | -123.42561 | 2119 ft | 205 kts | 101° |
| 2026-05-07 02:06 | 49.21186 | -123.40435 | 2077 ft | 203 kts | 102° |
| 2026-05-07 02:06 | 49.20905 | -123.38302 | 2093 ft | 208 kts | 101° |
| 2026-05-07 02:06 | 49.20662 | -123.36125 | 2065 ft | 202 kts | 99° |
| 2026-05-07 02:07 | 49.20469 | -123.34144 | 2048 ft | 175 kts | 98° |
| 2026-05-07 02:07 | 49.20162 | -123.30679 | 1340 ft | 159 kts | 98° |
| 2026-05-07 02:07 | 49.19997 | -123.29047 | 1068 ft | 147 kts | 101° |
| 2026-05-07 02:08 | 49.19811 | -123.27544 | 900 ft | 147 kts | 101° |
| 2026-05-07 02:08 | 49.19646 | -123.26079 | 744 ft | 136 kts | 101° |
| 2026-05-07 02:08 | 49.19481 | -123.24683 | 549 ft | 130 kts | 100° |
| 2026-05-07 02:08 | 49.19322 | -123.23365 | 387 ft | 122 kts | 101° |
| 2026-05-07 02:09 | 49.19168 | -123.22097 | 226 ft | 123 kts | 100° |
| 2026-05-07 02:09 | 49.19016 | -123.20797 | 93 ft | 126 kts | 100° |
| 2026-05-07 02:09 | 49.18866 | -123.19497 | 18 ft | 122 kts | 100° |
| 2026-05-07 02:09 | 49.18740 | -123.18382 | 16 ft | 79 kts | 100° |
| 2026-05-07 02:10 | 49.18660 | -123.17710 | 20 ft | 59 kts | 100° |
| 2026-05-07 02:10 | 49.18595 | -123.17139 | 17 ft | 51 kts | 99° |
| 2026-05-07 02:10 | 49.18539 | -123.16639 | 15 ft | 45 kts | 99° |
| 2026-05-07 02:10 | 49.18509 | -123.16262 | 18 ft | 21 kts | 69° |
| 2026-05-07 02:11 | 49.18638 | -123.16206 | 18 ft | 20 kts | 336° |
| 2026-05-07 02:11 | 49.18713 | -123.16342 | 18 ft | 16 kts | 292° |
| 2026-05-07 02:11 | 49.18733 | -123.16511 | 18 ft | 16 kts | 280° |
| 2026-05-07 02:11 | 49.18753 | -123.16673 | 17 ft | 15 kts | 280° |
| 2026-05-07 02:12 | 49.18772 | -123.16829 | 17 ft | 15 kts | 279° |
| 2026-05-07 02:12 | 49.18787 | -123.16977 | 18 ft | 14 kts | 279° |
| 2026-05-07 02:12 | 49.18804 | -123.17119 | 17 ft | 13 kts | 281° |
| 2026-05-07 02:12 | 49.18819 | -123.17273 | 17 ft | 17 kts | 278° |
| 2026-05-07 02:13 | 49.18843 | -123.17471 | 18 ft | 22 kts | 281° |
| 2026-05-07 02:13 | 49.18872 | -123.17726 | 17 ft | 27 kts | 280° |
| 2026-05-07 02:13 | 49.18907 | -123.18014 | 18 ft | 22 kts | 281° |
| 2026-05-07 02:13 | 49.18994 | -123.18057 | 17 ft | 16 kts | 10° |
| 2026-05-07 02:14 | 49.19112 | -123.18026 | 17 ft | 16 kts | 27° |
| 2026-05-07 02:14 | 49.19159 | -123.17983 | 17 ft | 0 kts | 29° |